D/T METAR WX W/DIR W/SPE G/SPE TEMP DEWP
16/01/19 03:50 EGOP 160350Z AUTO 22022KT 9000 // FEW007/// BKN044/// 09/09 Q1007 SW (220°) 25.3mph 9°C 9°C
16/01/19 02:50 EGOP 160250Z AUTO 23025KT 2200 // FEW014/// BKN021/// 09/09 Q1008 SW (230°) 28.8mph 9°C 9°C
16/01/19 01:50 EGOP 160150Z AUTO 24024KT 5000 // FEW004/// BKN015/// 09/09 Q1009 WSW (240°) 27.6mph 9°C 9°C
16/01/19 00:50 EGOP 160050Z AUTO 21021KT 7000 // FEW010/// BKN021/// BKN027/// 10/09 Q1010 SSW (210°) 24.2mph 10°C 9°C
15/01/19 23:50 EGOP 152350Z AUTO 21024KT 6000 // BKN004/// BKN016/// 09/09 Q1011 SSW (210°) 27.6mph 9°C 9°C
15/01/19 22:50 EGOP 152250Z AUTO 21023KT 2000 // BKN004/// SCT011/// 09/09 Q1012 SSW (210°) 26.5mph 9°C 9°C
15/01/19 21:50 EGOP 152150Z AUTO 21019KT 2500 // BKN003/// BKN011/// 09/09 Q1012 SSW (210°) 21.9mph 9°C 9°C
15/01/19 20:50 EGOP 152050Z AUTO 21017KT 9999 // SCT006/// BKN015/// 09/09 Q1013 SSW (210°) 19.6mph 9°C 9°C
15/01/19 19:50 EGOP 151950Z AUTO 21018KT 9999 // FEW006/// SCT027/// BKN033/// 09/09 Q1014 SSW (210°) 20.7mph 9°C 9°C
15/01/19 18:50 EGOP 151850Z AUTO 22018KT 9999 // SCT010/// BKN013/// BKN160/// 09/09 Q1015 SW (220°) 20.7mph 9°C 9°C
15/01/19 17:50 EGOP 151750Z AUTO 23017KT 6000 // FEW003/// BKN012/// 09/08 Q1015 SW (230°) 19.6mph 9°C 8°C
15/01/19 16:50 EGOP 151650Z AUTO 21012KT 9999 // BKN026/// 09/08 Q1016 SSW (210°) 13.8mph 9°C 8°C
15/01/19 15:50 EGOP 151550Z AUTO 23012KT 9999 // BKN028/// BKN220/// 10/08 Q1016 SW (230°) 13.8mph 10°C 8°C
15/01/19 14:50 EGOP 151450Z AUTO 22017KT 9999 // BKN027/// 10/08 Q1017 SW (220°) 19.6mph 10°C 8°C
15/01/19 13:50 EGOP 151350Z 23014KT 9999 BKN025 10/08 Q1018 BLU SW (230°) 16.1mph 10°C 8°C
15/01/19 12:50 EGOP 151250Z 23019KT 9999 BKN030 BKN037 10/08 Q1019 BLU SW (230°) 21.9mph 10°C 8°C
15/01/19 11:50 EGOP 151150Z 24015KT 9999 BKN032 SCT039 10/08 Q1019 BLU WSW (240°) 17.3mph 10°C 8°C
15/01/19 10:50 EGOP 151050Z 23014KT 9999 FEW026 BKN030 09/08 Q1020 BLU SW (230°) 16.1mph 9°C 8°C
15/01/19 09:50 EGOP 150950Z 24009KT 9999 BKN025 09/08 Q1020 BLU WSW (240°) 10.4mph 9°C 8°C
15/01/19 08:50 EGOP 150850Z 26009KT 9999 OVC028 08/08 Q1020 BLU W (260°) 10.4mph 8°C 8°C
15/01/19 07:50 EGOP 150750Z AUTO 27010KT 9999 // FEW006/// BKN019/// 08/08 Q1020 W (270°) 11.5mph 8°C 8°C
15/01/19 06:50 EGOP 150650Z AUTO 26012KT 9999 // BKN008/// SCT015/// BKN029/// 09/08 Q1021 W (260°) 13.8mph 9°C 8°C
15/01/19 05:50 EGOP 150550Z AUTO 23010KT 7000 // SCT005/// SCT014/// 09/08 Q1021 SW (230°) 11.5mph 9°C 8°C
15/01/19 04:50 EGOP 150450Z AUTO 25014KT 9999 // FEW021/// BKN033/// 09/08 Q1021 WSW (250°) 16.1mph 9°C 8°C
15/01/19 03:50 EGOP 150350Z AUTO 25007KT 9999 // BKN030/// 08/07 Q1022 WSW (250°) 8.1mph 8°C 7°C
15/01/19 02:50 EGOP 150250Z AUTO 27010KT 9999 // BKN030/// 08/07 Q1023 W (270°) 11.5mph 8°C 7°C
15/01/19 01:50 EGOP 150150Z AUTO 26008KT 9999 // OVC031/// 09/07 Q1023 W (260°) 9.2mph 9°C 7°C
15/01/19 00:50 EGOP 150050Z AUTO 26010KT 9999 // BKN031/// 09/07 Q1023 W (260°) 11.5mph 9°C 7°C
14/01/19 23:50 EGOP 142350Z AUTO 26011KT 9999 // BKN028/// 09/07 Q1024 W (260°) 12.7mph 9°C 7°C
14/01/19 22:50 EGOP 142250Z AUTO 27006KT 9999 // SCT018/// BKN027/// 08/06 Q1024 W (270°) 6.9mph 8°C 6°C
14/01/19 21:50 EGOP 142150Z AUTO 27008KT 9999 // FEW022/// BKN026/// 08/05 Q1024 W (270°) 9.2mph 8°C 5°C
14/01/19 20:50 EGOP 142050Z AUTO 25009KT 9999 // OVC031/// 08/05 Q1024 WSW (250°) 10.4mph 8°C 5°C
14/01/19 19:50 EGOP 141950Z AUTO 25003KT 9999 // BKN031/// 07/04 Q1024 WSW (250°) 3.5mph 7°C 4°C
14/01/19 18:50 EGOP 141850Z AUTO 27006KT 9999 // OVC034/// 07/04 Q1025 W (270°) 6.9mph 7°C 4°C
14/01/19 17:50 EGOP 141750Z AUTO 27009KT 9999 // OVC036/// 08/04 Q1024 W (270°) 10.4mph 8°C 4°C
14/01/19 16:50 EGOP 141650Z AUTO 29011KT 9999 // OVC036/// 08/03 Q1024 WNW (290°) 12.7mph 8°C 3°C
14/01/19 15:50 EGOP 141550Z AUTO 28011KT 9999 // OVC035/// 09/04 Q1025 W (280°) 12.7mph 9°C 4°C
14/01/19 14:50 EGOP 141450Z 28014KT 9999 OVC038 09/03 Q1024 BLU W (280°) 16.1mph 9°C 3°C
14/01/19 13:50 EGOP 141350Z 29012KT 9999 BKN041 09/04 Q1024 BLU WNW (290°) 13.8mph 9°C 4°C
14/01/19 12:50 EGOP 141250Z 30011KT 9999 OVC037 09/03 Q1024 BLU WNW (300°) 12.7mph 9°C 3°C
14/01/19 11:50 EGOP 141150Z 31014KT 9999 OVC035 09/03 Q1024 BLU NW (310°) 16.1mph 9°C 3°C
14/01/19 10:50 EGOP 141050Z 31011KT 9999 OVC034 09/03 Q1024 BLU NW (310°) 12.7mph 9°C 3°C
14/01/19 09:50 EGOP 140950Z 30011KT 9999 OVC034 09/03 Q1024 BLU WNW (300°) 12.7mph 9°C 3°C
14/01/19 08:50 EGOP 140850Z 32009KT 9999 OVC035 08/04 Q1023 BLU NW (320°) 10.4mph 8°C 4°C
14/01/19 07:50 EGOP 140750Z AUTO 32012KT 9999 // BKN037/// 08/03 Q1023 NW (320°) 13.8mph 8°C 3°C
14/01/19 06:50 EGOP 140650Z AUTO 31011KT 9999 // OVC036/// 08/04 Q1022 NW (310°) 12.7mph 8°C 4°C
14/01/19 05:50 EGOP 140550Z AUTO 31011KT 9999 // BKN036/// 07/04 Q1022 NW (310°) 12.7mph 7°C 4°C
14/01/19 04:50 EGOP 140450Z AUTO 30014KT 9999 // BKN036/// 08/04 Q1021 WNW (300°) 16.1mph 8°C 4°C
14/01/19 03:50 EGOP 140350Z AUTO 31013KT 9999 // BKN035/// 08/04 Q1021 NW (310°) 15.0mph 8°C 4°C
14/01/19 02:50 EGOP 140250Z AUTO 33014KT 9999 // SCT039/// 08/03 Q1021 NNW (330°) 16.1mph 8°C 3°C
14/01/19 01:50 EGOP 140150Z AUTO 32012KT 9999 // BKN035/// 09/04 Q1020 NW (320°) 13.8mph 9°C 4°C
14/01/19 00:50 EGOP 140050Z AUTO 31016KT 9999 // BKN038/// 09/04 Q1020 NW (310°) 18.4mph 9°C 4°C
13/01/19 23:50 EGOP 132350Z AUTO 31018KT 9999 // BKN042/// 09/04 Q1020 NW (310°) 20.7mph 9°C 4°C
13/01/19 22:50 EGOP 132250Z AUTO 32019KT 9999 // BKN042/// 09/04 Q1019 NW (320°) 21.9mph 9°C 4°C
13/01/19 21:50 EGOP 132150Z AUTO 33020KT 9999 // FEW046/// 09/03 Q1019 NNW (330°) 23.0mph 9°C 3°C
13/01/19 20:50 EGOP 132050Z AUTO 33015KT 9999 // BKN034/// BKN041/// 10/05 Q1018 NNW (330°) 17.3mph 10°C 5°C
13/01/19 19:50 EGOP 131950Z AUTO 30016KT 9999 // SCT033/// BKN041/// 10/07 Q1017 WNW (300°) 18.4mph 10°C 7°C
13/01/19 18:50 EGOP 131850Z AUTO 30016KT 9999 // NCD 10/07 Q1017 WNW (300°) 18.4mph 10°C 7°C
13/01/19 17:50 EGOP 131750Z AUTO 27014KT 9999 // SCT017/// SCT025/// BKN120/// 11/08 Q1017 W (270°) 16.1mph 11°C 8°C
13/01/19 16:50 EGOP 131650Z AUTO 28016KT 9999 // SCT018/// BKN120/// 11/08 Q1017 W (280°) 18.4mph 11°C 8°C
13/01/19 15:50 EGOP 131550Z AUTO 29019KT 9999 // BKN016/// BKN024/// 11/08 Q1017 WNW (290°) 21.9mph 11°C 8°C
13/01/19 14:50 EGOP 131450Z AUTO 30018KT 9999 // BKN016/// BKN130/// 11/08 Q1017 WNW (300°) 20.7mph 11°C 8°C
13/01/19 13:50 EGOP 131350Z AUTO 27020KT 9999 // OVC015/// 11/08 Q1017 W (270°) 23.0mph 11°C 8°C
13/01/19 12:50 EGOP 131250Z AUTO 28024KT 9999 // OVC015/// 11/08 Q1017 W (280°) 27.6mph 11°C 8°C
13/01/19 11:50 EGOP 131150Z AUTO 29022KT 9999 // OVC015/// 11/08 Q1018 WNW (290°) 25.3mph 11°C 8°C
13/01/19 10:50 EGOP 131050Z AUTO 27020KT 9999 // BKN015/// SCT020/// 10/08 Q1019 W (270°) 23.0mph 10°C 8°C
13/01/19 09:50 EGOP 130950Z AUTO 27018KT 9999 // FEW015/// BKN140/// 10/08 Q1019 W (270°) 20.7mph 10°C 8°C
13/01/19 08:50 EGOP 130850Z AUTO 27014KT 9999 // BKN140/// 09/08 Q1019 W (270°) 16.1mph 9°C 8°C
13/01/19 07:50 EGOP 130750Z AUTO 27010KT 9000 // BKN015/// BKN140/// 09/08 Q1020 W (270°) 11.5mph 9°C 8°C
13/01/19 06:50 EGOP 130650Z AUTO 24010KT 9999 // BKN015/// 09/08 Q1020 WSW (240°) 11.5mph 9°C 8°C
13/01/19 05:50 EGOP 130550Z AUTO 26014KT 9999 // FEW017/// BKN130/// 09/07 Q1020 W (260°) 16.1mph 9°C 7°C
13/01/19 04:50 EGOP 130450Z AUTO 28018KT 9999 // NCD 09/07 Q1021 W (280°) 20.7mph 9°C 7°C
13/01/19 03:50 EGOP 130350Z AUTO 29017KT 9999 // BKN012/// 10/08 Q1022 WNW (290°) 19.6mph 10°C 8°C
13/01/19 02:50 EGOP 130250Z AUTO 28017KT 9999 // OVC008/// 10/09 Q1022 W (280°) 19.6mph 10°C 9°C
13/01/19 01:50 EGOP 130150Z AUTO 26014KT 9999 // BKN010/// 10/08 Q1022 W (260°) 16.1mph 10°C 8°C
13/01/19 00:50 EGOP 130050Z AUTO 27018KT 9999 // OVC012/// 10/08 Q1023 W (270°) 20.7mph 10°C 8°C
12/01/19 23:50 EGOP 122350Z AUTO 27016KT 9000 // OVC012/// 10/08 Q1024 W (270°) 18.4mph 10°C 8°C
12/01/19 22:50 EGOP 122250Z AUTO 27011KT 9000 // BKN013/// 10/08 Q1025 W (270°) 12.7mph 10°C 8°C
12/01/19 21:50 EGOP 122150Z AUTO 29018KT 9999 // BKN015/// 10/08 Q1025 WNW (290°) 20.7mph 10°C 8°C
12/01/19 20:50 EGOP 122050Z AUTO 27014KT 9999 // OVC015/// 10/08 Q1025 W (270°) 16.1mph 10°C 8°C
12/01/19 19:50 EGOP 121950Z AUTO 27014KT 9999 // OVC015/// 10/08 Q1025 W (270°) 16.1mph 10°C 8°C
12/01/19 18:50 EGOP 121850Z AUTO 27011KT 9999 // BKN016/// 09/08 Q1025 W (270°) 12.7mph 9°C 8°C
12/01/19 17:50 EGOP 121750Z AUTO 26013KT 9999 // BKN015/// BKN022/// 10/08 Q1025 W (260°) 15.0mph 10°C 8°C
12/01/19 16:50 EGOP 121650Z AUTO 27014KT 9999 // BKN017/// SCT022/// 09/07 Q1025 W (270°) 16.1mph 9°C 7°C
12/01/19 15:50 EGOP 121550Z AUTO 28012KT 9999 // OVC022/// 10/07 Q1025 W (280°) 13.8mph 10°C 7°C
12/01/19 14:50 EGOP 121450Z AUTO 29014KT 9999 // BKN022/// SCT029/// 10/06 Q1025 WNW (290°) 16.1mph 10°C 6°C
12/01/19 13:50 EGOP 121350Z AUTO 29013KT 9999 // FEW025/// BKN030/// 10/07 Q1025 WNW (290°) 15.0mph 10°C 7°C
12/01/19 12:50 EGOP 121250Z AUTO 29019KT 9999 // FEW024/// BKN032/// 10/07 Q1026 WNW (290°) 21.9mph 10°C 7°C
12/01/19 11:50 EGOP 121150Z AUTO 29019KT 9999 // FEW020/// SCT023/// 10/07 Q1026 WNW (290°) 21.9mph 10°C 7°C
12/01/19 10:50 EGOP 121050Z AUTO 28018KT 9999 // FEW037/// 10/07 Q1026 W (280°) 20.7mph 10°C 7°C
12/01/19 09:50 EGOP 120950Z AUTO 31018KT 9999 // SCT012/// 10/08 Q1026 NW (310°) 20.7mph 10°C 8°C
12/01/19 08:50 EGOP 120850Z AUTO 28019KT 9999 // BKN014/// 10/08 Q1026 W (280°) 21.9mph 10°C 8°C
12/01/19 07:50 EGOP 120750Z AUTO 27016KT 9999 // BKN014/// SCT026/// 10/08 Q1026 W (270°) 18.4mph 10°C 8°C
12/01/19 06:50 EGOP 120650Z AUTO 27017KT 9999 // SCT013/// BKN042/// 09/08 Q1026 W (270°) 19.6mph 9°C 8°C
12/01/19 05:50 EGOP 120550Z AUTO 26015KT 9999 // BKN015/// BKN060/// 09/07 Q1027 W (260°) 17.3mph 9°C 7°C
12/01/19 04:50 EGOP 120450Z AUTO 26012KT 9999 // BKN015/// 09/07 Q1028 W (260°) 13.8mph 9°C 7°C
12/01/19 03:50 EGOP 120350Z AUTO 27016KT 9999 // OVC017/// 09/07 Q1029 W (270°) 18.4mph 9°C 7°C
12/01/19 02:50 EGOP 120250Z AUTO 26015KT 9999 // BKN016/// BKN022/// 09/07 Q1029 W (260°) 17.3mph 9°C 7°C
12/01/19 01:50 EGOP 120150Z AUTO 26012KT 9999 // BKN022/// 09/08 Q1030 W (260°) 13.8mph 9°C 8°C
12/01/19 00:50 EGOP 120050Z AUTO 27008KT 8000 // BKN013/// BKN019/// 09/08 Q1030 W (270°) 9.2mph 9°C 8°C
11/01/19 23:50 EGOP 112350Z AUTO 26010KT 9999 // SCT019/// BKN026/// 09/08 Q1031 W (260°) 11.5mph 9°C 8°C
11/01/19 22:50 EGOP 112250Z AUTO 26010KT 9999 // BKN019/// BKN032/// 09/07 Q1031 W (260°) 11.5mph 9°C 7°C
11/01/19 21:50 EGOP 112150Z AUTO 28009KT 9999 // OVC030/// 08/07 Q1032 W (280°) 10.4mph 8°C 7°C
11/01/19 20:50 EGOP 112050Z AUTO 28010KT 9999 // OVC028/// 09/07 Q1032 W (280°) 11.5mph 9°C 7°C
11/01/19 19:50 EGOP 111950Z AUTO 27010KT 9999 // BKN031/// 09/07 Q1032 W (270°) 11.5mph 9°C 7°C
11/01/19 18:50 EGOP 111850Z AUTO 27007KT 9999 // OVC035/// 08/07 Q1032 W (270°) 8.1mph 8°C 7°C
11/01/19 17:50 EGOP 111750Z AUTO 29005KT 9999 // OVC039/// 08/07 Q1032 WNW (290°) 5.8mph 8°C 7°C
11/01/19 16:50 EGOP 111650Z AUTO 28007KT 9999 // OVC041/// 09/07 Q1033 W (280°) 8.1mph 9°C 7°C
11/01/19 15:50 EGOP 111550Z AUTO 29006KT 9999 // OVC038/// 09/07 Q1033 WNW (290°) 6.9mph 9°C 7°C
11/01/19 14:50 EGOP 111450Z AUTO 29003KT 9999 // BKN039/// 09/07 Q1033 WNW (290°) 3.5mph 9°C 7°C
11/01/19 13:50 EGOP 111350Z AUTO 31005KT 9999 // FEW018/// BKN021/// 09/07 Q1033 NW (310°) 5.8mph 9°C 7°C
11/01/19 12:50 EGOP 111250Z 31005KT 9999 BKN037 09/06 Q1033 BLU NW (310°) 5.8mph 9°C 6°C
11/01/19 11:50 EGOP 111150Z 02006KT 9999 OVC042 09/06 Q1033 BLU NNE (20°) 6.9mph 9°C 6°C
11/01/19 10:50 EGOP 111050Z 34003KT 9999 OVC040 08/07 Q1034 BLU NNW (340°) 3.5mph 8°C 7°C
11/01/19 09:50 EGOP 110950Z 24002KT 9999 OVC039 07/06 Q1033 BLU WSW (240°) 2.3mph 7°C 6°C
11/01/19 08:50 EGOP 110850Z 31003KT 9999 BKN040 07/06 Q1033 BLU NW (310°) 3.5mph 7°C 6°C
11/01/19 07:50 EGOP 110750Z AUTO 33007KT 9999 // BKN040/// SCT046/// 07/06 Q1033 NNW (330°) 8.1mph 7°C 6°C
11/01/19 06:50 EGOP 110650Z AUTO 33006KT 9999 // FEW032/// SCT039/// BKN050/// 07/06 Q1032 NNW (330°) 6.9mph 7°C 6°C
11/01/19 05:50 EGOP 110550Z AUTO 32007KT 4500 // SCT035/// BKN046/// 07/06 Q1032 NW (320°) 8.1mph 7°C 6°C
11/01/19 04:50 EGOP 110450Z AUTO 01006KT 9999 // BKN043/// 06/06 Q1032 N (10°) 6.9mph 6°C 6°C
11/01/19 03:50 EGOP 110350Z AUTO 34007KT 9999 // BKN050/// 07/06 Q1032 NNW (340°) 8.1mph 7°C 6°C
11/01/19 02:50 EGOP 110250Z AUTO 34002KT 9999 // SCT028/// SCT037/// BKN050/// 06/05 Q1032 NNW (340°) 2.3mph 6°C 5°C
11/01/19 01:50 EGOP 110150Z AUTO 34005KT 9000 // BKN044/// 06/05 Q1032 NNW (340°) 5.8mph 6°C 5°C
11/01/19 00:50 EGOP 110050Z AUTO 33004KT 9000 // BKN050/// 05/05 Q1032 NNW (330°) 4.6mph 5°C 5°C
10/01/19 23:50 EGOP 102350Z AUTO 36004KT 9999 // BKN050/// 06/05 Q1033 N (360°) 4.6mph 6°C 5°C
10/01/19 22:50 EGOP 102250Z AUTO 33006KT 9999 // OVC049/// 07/06 Q1033 NNW (330°) 6.9mph 7°C 6°C
10/01/19 21:50 EGOP 102150Z AUTO 02007KT 9999 // BKN049/// 06/05 Q1033 NNE (20°) 8.1mph 6°C 5°C
10/01/19 20:50 EGOP 102050Z AUTO 09001KT 9999 // BKN050/// 05/04 Q1033 E (90°) 1.2mph 5°C 4°C
10/01/19 19:50 EGOP 101950Z AUTO 01003KT 9999 // BKN047/// 06/05 Q1032 N (10°) 3.5mph 6°C 5°C
10/01/19 18:50 EGOP 101850Z AUTO 01002KT 9999 // FEW006/// BKN045/// 06/05 Q1032 N (10°) 2.3mph 6°C 5°C
10/01/19 17:50 EGOP 101750Z AUTO 03006KT 9999 // BKN005/// BKN041/// BKN050/// 07/06 Q1032 NNE (30°) 6.9mph 7°C 6°C
10/01/19 16:50 EGOP 101650Z AUTO 02003KT 9000 // OVC005/// 06/05 Q1032 NNE (20°) 3.5mph 6°C 5°C
10/01/19 15:50 EGOP 101550Z AUTO 02003KT 9999 // OVC007/// 06/04 Q1032 NNE (20°) 3.5mph 6°C 4°C
10/01/19 14:50 EGOP 101450Z AUTO 33003KT 9999 // BKN008/// BKN014/// 06/03 Q1032 NNW (330°) 3.5mph 6°C 3°C
10/01/19 13:50 EGOP 101350Z 29002KT 9999 BKN006 SCT019 05/03 Q1032 YLO1 WNW (290°) 2.3mph 5°C 3°C
10/01/19 12:50 EGOP 101250Z 27003KT 9999 FEW007 BKN019 05/02 Q1032 WHT W (270°) 3.5mph 5°C 2°C
10/01/19 11:50 EGOP 101150Z 06001KT 9999 BKN011 04/01 Q1033 GRN ENE (60°) 1.2mph 4°C 1°C
10/01/19 10:50 EGOP 101050Z 05004KT 9999 OVC016 03/01 Q1033 WHT NE (50°) 4.6mph 3°C 1°C
10/01/19 09:50 EGOP 100950Z 04004KT 9999 BKN016 BKN029 02/00 Q1033 WHT NE (40°) 4.6mph 2°C 0°C
10/01/19 08:50 EGOP 100850Z 07003KT 9999 BKN028 00/M00 Q1033 BLU ENE (70°) 3.5mph 0°C 0°C
10/01/19 07:50 EGOP 100750Z AUTO 06003KT 9999 // BKN036/// BKN060/// 00/M00 Q1032 ENE (60°) 3.5mph 0°C 0°C
10/01/19 06:50 EGOP 100650Z AUTO 06001KT 9999 // OVC045/// 00/M01 Q1032 ENE (60°) 1.2mph 0°C -1°C
10/01/19 05:50 EGOP 100550Z AUTO 06002KT 9999 // BKN060/// OVC090/// M00/M01 Q1032 ENE (60°) 2.3mph 0°C -1°C
10/01/19 04:50 EGOP 100450Z AUTO 07004KT 9999 // OVC060/// M00/M01 Q1032 ENE (70°) 4.6mph 0°C -1°C